createdAt,value
2023-02-16T00:03:00.305Z,71.73
2023-02-16T00:08:00.577Z,72.66
2023-02-16T00:12:59.977Z,72.25
2023-02-16T00:17:59.914Z,72.69
2023-02-16T04:31:37.472Z,77.27
2023-02-16T04:36:36.818Z,78.97
2023-02-16T04:41:36.805Z,79.74
2023-02-16T04:46:36.791Z,80.22
2023-02-16T04:51:36.675Z,78.87
2023-02-16T04:56:36.564Z,79.63
2023-02-16T05:01:36.567Z,79.08
2023-02-16T05:06:36.700Z,78.66
2023-02-16T05:11:36.399Z,78.66
2023-02-16T05:16:36.252Z,80.30
2023-02-16T05:21:39.397Z,80.51
2023-02-16T05:26:36.229Z,82.17
2023-02-16T05:31:36.528Z,80.29
2023-02-16T05:36:36.034Z,77.86
2023-02-16T05:41:36.319Z,76.72
2023-02-16T05:46:35.957Z,76.30
2023-02-16T05:51:43.433Z,77.27
2023-02-16T05:56:35.796Z,76.78
2023-02-16T06:01:35.796Z,78.91
2023-02-16T06:06:35.747Z,78.17
2023-02-16T06:11:35.850Z,77.20
2023-02-16T06:16:35.524Z,78.73
2023-02-16T06:25:57.649Z,80.78
2023-02-16T06:32:46.727Z,77.13
2023-02-16T06:37:46.664Z,77.06
2023-02-16T06:42:46.754Z,77.51
2023-02-16T06:47:46.578Z,78.31
2023-02-16T06:52:46.583Z,76.92
2023-02-16T06:57:46.394Z,77.20
2023-02-16T07:02:46.650Z,76.75
2023-02-16T07:07:46.236Z,76.23
2023-02-16T07:12:46.285Z,75.54
2023-02-16T07:17:46.100Z,75.09
2023-02-16T07:22:49.100Z,74.26
2023-02-16T07:27:46.206Z,75.19
2023-02-16T07:32:46.129Z,74.05
2023-02-16T07:37:45.970Z,73.11
2023-02-16T07:42:45.817Z,72.46
2023-02-16T07:47:45.805Z,72.05
2023-02-16T07:52:46.086Z,74.26
2023-02-16T07:57:56.113Z,71.80
2023-02-16T08:02:46.456Z,72.42
2023-02-16T08:13:04.644Z,72.53
2023-02-16T08:18:17.420Z,71.08
2023-02-16T08:23:03.465Z,71.98
2023-02-16T08:28:03.295Z,72.25
2023-02-16T08:33:03.242Z,71.94
2023-02-16T08:38:04.568Z,71.60
2023-02-16T08:43:03.180Z,71.81
2023-02-16T08:48:03.228Z,71.15
2023-02-16T08:53:03.093Z,70.61
2023-02-16T08:58:02.948Z,69.78
2023-02-16T09:03:05.891Z,69.57
2023-02-16T09:08:03.262Z,71.02
2023-02-16T09:13:02.793Z,68.75
2023-02-16T09:18:02.700Z,68.13
2023-02-16T09:23:02.554Z,68.00
2023-02-16T09:28:02.561Z,67.97
2023-02-16T09:33:02.871Z,67.97
2023-02-16T09:38:02.829Z,67.42
2023-02-16T09:43:02.372Z,67.36
2023-02-16T09:48:02.465Z,67.22
2023-02-16T09:53:02.306Z,66.47
2023-02-16T09:58:02.044Z,66.44
2023-02-16T10:03:05.250Z,65.59
2023-02-16T10:08:01.969Z,65.48
2023-02-16T10:13:01.958Z,63.75
2023-02-16T10:18:01.887Z,63.07
2023-02-16T10:23:01.773Z,62.26
2023-02-16T10:28:01.902Z,61.51
2023-02-16T10:33:01.815Z,61.38
2023-02-16T10:38:01.628Z,60.30
2023-02-16T10:43:01.566Z,59.55
2023-02-16T10:48:01.846Z,59.01
2023-02-16T10:53:01.607Z,58.48
2023-02-16T10:59:29.702Z,57.73
2023-02-16T11:04:29.558Z,58.25
2023-02-16T11:09:29.452Z,57.81
2023-02-16T11:14:29.172Z,57.17
2023-02-16T11:19:29.299Z,56.53
2023-02-16T11:24:29.256Z,57.14
2023-02-16T11:30:55.861Z,56.20
2023-02-16T11:37:58.238Z,54.94
2023-02-16T11:42:58.274Z,56.50
2023-02-16T11:47:58.110Z,54.82
2023-02-16T11:52:57.970Z,54.79
2023-02-16T11:57:58.138Z,54.26
2023-02-16T12:02:57.943Z,53.44
2023-02-16T12:07:57.905Z,51.97
2023-02-16T12:14:26.289Z,51.29
2023-02-16T12:19:26.612Z,54.77
2023-02-16T12:24:26.189Z,54.84
2023-02-16T12:29:25.955Z,56.16
2023-02-16T12:34:26.045Z,55.32
2023-02-16T12:39:25.800Z,57.95
2023-02-16T12:44:25.860Z,56.26
2023-02-16T12:49:25.803Z,53.42
2023-02-16T12:54:25.728Z,52.53
2023-02-16T12:59:25.665Z,53.17
2023-02-16T13:04:28.545Z,54.24
2023-02-16T13:09:25.506Z,54.36
2023-02-16T13:14:25.390Z,54.21
2023-02-16T13:19:25.350Z,53.17
2023-02-16T13:24:26.093Z,53.67
2023-02-16T13:29:25.430Z,53.52
2023-02-16T13:34:25.171Z,52.86
2023-02-16T13:39:24.992Z,53.88
2023-02-16T13:44:25.918Z,53.42
2023-02-16T13:49:24.996Z,51.07
2023-02-16T13:54:25.084Z,51.60
2023-02-16T13:59:24.854Z,50.76
2023-02-16T14:04:27.915Z,49.16
2023-02-16T14:09:24.768Z,49.73
2023-02-16T14:14:24.692Z,48.11
2023-02-16T14:19:24.479Z,46.26
2023-02-16T14:24:24.552Z,45.83
2023-02-16T14:29:24.473Z,44.34
2023-02-16T14:34:24.426Z,41.54
2023-02-16T14:39:24.336Z,43.08
2023-02-16T14:44:24.301Z,43.08
2023-02-16T14:49:24.213Z,43.89
2023-02-16T14:54:24.105Z,44.20
2023-02-16T14:59:23.966Z,44.77
2023-02-16T15:05:44.626Z,45.15
2023-02-16T15:10:44.501Z,46.49
2023-02-16T15:15:44.497Z,48.04
2023-02-16T15:20:44.458Z,50.12
2023-02-16T15:25:44.328Z,49.76
2023-02-16T15:30:44.152Z,51.14
2023-02-16T15:35:44.354Z,51.23
2023-02-16T15:40:44.159Z,53.42
2023-02-16T15:45:44.120Z,53.96
2023-02-16T15:50:43.941Z,53.02
2023-02-16T15:55:54.708Z,52.68
2023-02-16T16:00:51.407Z,53.85
2023-02-16T16:05:43.826Z,53.72
2023-02-16T16:10:43.719Z,53.63
2023-02-16T16:15:43.720Z,55.51
2023-02-16T16:20:43.579Z,55.07
2023-02-16T16:25:43.716Z,55.38
2023-02-16T16:34:06.721Z,55.91
2023-02-16T16:39:04.932Z,55.28
2023-02-16T16:44:12.557Z,55.68
2023-02-16T16:49:04.677Z,54.94
2023-02-16T16:54:04.581Z,55.46
2023-02-16T16:59:04.490Z,55.79
2023-02-16T17:04:04.607Z,56.10
2023-02-16T17:09:04.614Z,56.40
2023-02-16T17:14:04.397Z,56.30
2023-02-16T17:35:38.986Z,56.17
2023-02-16T17:40:47.918Z,57.42
2023-02-16T17:45:38.896Z,59.31
2023-02-16T17:50:39.034Z,61.05
2023-02-16T18:03:30.964Z,66.21
2023-02-16T18:25:07.235Z,69.96
2023-02-16T18:35:03.087Z,71.53
2023-02-16T18:40:03.093Z,72.34
2023-02-16T18:45:03.112Z,71.77
2023-02-16T18:50:02.885Z,71.22
2023-02-16T18:55:03.108Z,70.78
2023-02-16T19:00:02.819Z,71.42
2023-02-16T19:05:02.856Z,71.12
2023-02-16T19:10:02.614Z,72.11
2023-02-16T19:15:02.625Z,72.20
2023-02-16T19:20:02.584Z,71.80
2023-02-16T19:25:12.975Z,70.94
2023-02-16T19:30:02.745Z,72.03
2023-02-16T19:35:02.870Z,71.18
2023-02-16T19:40:02.362Z,69.79
2023-02-16T20:06:08.706Z,69.95
2023-02-16T20:11:08.626Z,70.09
2023-02-16T20:16:08.969Z,70.91
2023-02-16T20:21:08.700Z,69.75
2023-02-16T20:48:58.577Z,69.95
2023-02-16T20:53:57.286Z,69.57
2023-02-16T20:58:57.535Z,70.84
2023-02-16T21:04:02.358Z,69.98
2023-02-16T21:08:58.001Z,70.53
2023-02-16T21:13:57.382Z,70.50
2023-02-16T21:21:07.175Z,71.04
2023-02-16T21:26:07.423Z,70.91
2023-02-16T21:31:07.151Z,71.01
2023-02-16T21:36:07.251Z,70.81
2023-02-16T21:41:06.858Z,70.06
2023-02-16T21:46:07.217Z,69.34
2023-02-16T21:51:06.731Z,69.24
2023-02-16T21:56:07.224Z,69.20
2023-02-16T22:01:06.725Z,70.16
2023-02-16T22:06:06.920Z,69.41
2023-02-16T22:11:10.628Z,69.95
2023-02-16T22:16:14.063Z,69.24
2023-02-16T22:21:06.404Z,69.44
2023-02-16T22:26:06.734Z,69.75
2023-02-16T22:31:06.213Z,69.65
2023-02-16T22:36:06.494Z,70.06
2023-02-16T22:41:06.202Z,70.47
2023-02-16T22:46:06.532Z,69.00
2023-02-16T22:51:06.088Z,68.79
2023-02-16T23:10:02.886Z,68.90
2023-02-16T23:15:02.910Z,69.24
2023-02-16T23:20:02.960Z,68.90
2023-02-16T23:25:02.810Z,68.38
2023-02-16T23:30:02.710Z,69.24
2023-02-16T23:35:02.645Z,69.57
2023-02-16T23:40:02.532Z,68.69
2023-02-16T23:45:02.498Z,68.55
2023-02-16T23:50:02.534Z,68.55
2023-02-16T23:55:02.344Z,67.84
